Horizon — 9HYZ9 — position and weather

sailwx.info

Track history (hours):
 
Tides and Currents Weather Stations Pressure Air Temp Water Temp Dewpoint Dewpoint Depression Visibility Wind Speed Wind Dir Waves Ship Positions

Horizon

Last reported at 2018-Jan-19 18:51 UTC. Time now 2018-Jan-20 01:28 UTC.
Position N 28°24' W 013°46'.

Length 207 m; draft 7.7 m.

Type: Passenger vessel. MMSI: 249727000.

Date/timePositionNaut miles runAvg speedWind from/ knotsBaromVisibWave heightAir tempDewpointWater temp
2018-Jan-19 18:51N 28°24' W 013°46'43 2.2
2018-Jan-18 23:19N 28°51' W 013°07'2 6.8
2018-Jan-18 23:00N 28°52' W 013°09'4 7.0
2018-Jan-18 22:29N 28°53' W 013°13'4 7.1
2018-Jan-18 21:56N 28°54' W 013°18'3 7.2
2018-Jan-18 21:30N 28°55' W 013°21'4 7.3
2018-Jan-18 20:57N 28°56' W 013°26'3 7.3
2018-Jan-18 20:30N 28°56' W 013°29'3 5.6
2018-Jan-18 20:00N 28°58' W 013°32'0 0.3
2018-Jan-18 19:30N 28°58' W 013°32'0 0.0
2018-Jan-18 19:00N 28°58' W 013°32'0 0.0
2018-Jan-18 18:30N 28°58' W 013°32'0 0.0
2018-Jan-18 18:00N 28°58' W 013°32'0 0.0
2018-Jan-18 17:27N 28°58' W 013°32'0 0.0
2018-Jan-18 17:00N 28°58' W 013°32'0 0.0
2018-Jan-18 16:30N 28°58' W 013°32'0 0.0
2018-Jan-18 15:48N 28°58' W 013°32'0 0.0
2018-Jan-18 15:24N 28°58' W 013°32'0 0.0
2018-Jan-18 14:48N 28°58' W 013°32'0 0.0
2018-Jan-18 14:30N 28°58' W 013°32'0 0.0
2018-Jan-18 13:54N 28°58' W 013°32'0 0.0
2018-Jan-18 13:30N 28°58' W 013°32'0 0.0
2018-Jan-18 12:54N 28°58' W 013°32'0 0.0
2018-Jan-18 12:30N 28°58' W 013°32'1 1.3
2018-Jan-18 12:00N 28°57' W 013°32'4 8.3
2018-Jan-18 11:30N 28°58' W 013°27'5 9.6
2018-Jan-18 10:59N 28°59' W 013°22'6 9.5
2018-Jan-18 10:22N 28°60' W 013°15'4 9.4
2018-Jan-18 10:00N 29°01' W 013°11'5 9.8
2018-Jan-18 09:30N 29°02' W 013°06'  
2018-Jan-12 00:02N 28°42' W 013°05'1 8.7
2018-Jan-11 23:58N 28°43' W 013°06'4 9.0
2018-Jan-11 23:30N 28°47' W 013°06'5 7.8
2018-Jan-11 22:48N 28°52' W 013°08'3 8.0
2018-Jan-11 22:29N 28°52' W 013°11'4 8.1
2018-Jan-11 22:00N 28°53' W 013°16'4 8.2
2018-Jan-11 21:30N 28°54' W 013°20'4 8.5
2018-Jan-11 20:59N 28°55' W 013°25'4 8.8
2018-Jan-11 20:29N 28°57' W 013°30'2 4.2
2018-Jan-11 19:58N 28°58' W 013°32'0 0.1
2018-Jan-11 19:28N 28°58' W 013°32'0 0.0
2018-Jan-11 18:58N 28°58' W 013°32'0 0.0
2018-Jan-11 18:28N 28°58' W 013°32'0 0.0
2018-Jan-11 17:52N 28°58' W 013°32'0 0.0
2018-Jan-11 17:22N 28°58' W 013°32'0 0.0
2018-Jan-11 16:40N 28°58' W 013°32'0 0.0
2018-Jan-11 16:28N 28°58' W 013°32'0 0.0
2018-Jan-11 15:58N 28°58' W 013°32'0 0.0
2018-Jan-11 15:28N 28°58' W 013°32'0 0.0
2018-Jan-11 14:58N 28°58' W 013°32'0 0.0
2018-Jan-11 14:28N 28°58' W 013°32'0 0.0
2018-Jan-11 13:58N 28°58' W 013°32'0 0.0
2018-Jan-11 13:22N 28°58' W 013°32'0 0.0
2018-Jan-11 13:00N 28°58' W 013°32'0 0.0
2018-Jan-11 12:30N 28°58' W 013°32'1 2.1
2018-Jan-11 11:59N 28°57' W 013°31'613.3
2018-Jan-11 11:30N 28°58' W 013°23'714.1
2018-Jan-11 11:01N 28°60' W 013°16'714.2
2018-Jan-11 10:30N 29°02' W 013°08'  
Track history (hours):
 
Tides and Currents Weather Stations Pressure Air Temp Water Temp Dewpoint Dewpoint Depression Visibility Wind Speed Wind Dir Waves Ship Positions

Horizon

Last reported at 2018-Jan-19 18:51 UTC. Time now 2018-Jan-20 01:28 UTC.
Position N 28°24' W 013°46'.

Length 207 m; draft 7.7 m.

Type: Passenger vessel. MMSI: 249727000.

Date/timePositionNaut miles runAvg speedWind from/ knotsBaromVisibWave heightAir tempDewpointWater temp
2018-Jan-19 18:51N 28°24' W 013°46'43 2.2
2018-Jan-18 23:19N 28°51' W 013°07'2 6.8
2018-Jan-18 23:00N 28°52' W 013°09'4 7.0
2018-Jan-18 22:29N 28°53' W 013°13'4 7.1
2018-Jan-18 21:56N 28°54' W 013°18'3 7.2
2018-Jan-18 21:30N 28°55' W 013°21'4 7.3
2018-Jan-18 20:57N 28°56' W 013°26'3 7.3
2018-Jan-18 20:30N 28°56' W 013°29'3 5.6
2018-Jan-18 20:00N 28°58' W 013°32'0 0.3
2018-Jan-18 19:30N 28°58' W 013°32'0 0.0
2018-Jan-18 19:00N 28°58' W 013°32'0 0.0
2018-Jan-18 18:30N 28°58' W 013°32'0 0.0
2018-Jan-18 18:00N 28°58' W 013°32'0 0.0
2018-Jan-18 17:27N 28°58' W 013°32'0 0.0
2018-Jan-18 17:00N 28°58' W 013°32'0 0.0
2018-Jan-18 16:30N 28°58' W 013°32'0 0.0
2018-Jan-18 15:48N 28°58' W 013°32'0 0.0
2018-Jan-18 15:24N 28°58' W 013°32'0 0.0
2018-Jan-18 14:48N 28°58' W 013°32'0 0.0
2018-Jan-18 14:30N 28°58' W 013°32'0 0.0
2018-Jan-18 13:54N 28°58' W 013°32'0 0.0
2018-Jan-18 13:30N 28°58' W 013°32'0 0.0
2018-Jan-18 12:54N 28°58' W 013°32'0 0.0
2018-Jan-18 12:30N 28°58' W 013°32'1 1.3
2018-Jan-18 12:00N 28°57' W 013°32'4 8.3
2018-Jan-18 11:30N 28°58' W 013°27'5 9.6
2018-Jan-18 10:59N 28°59' W 013°22'6 9.5
2018-Jan-18 10:22N 28°60' W 013°15'4 9.4
2018-Jan-18 10:00N 29°01' W 013°11'5 9.8
2018-Jan-18 09:30N 29°02' W 013°06'  
2018-Jan-12 00:02N 28°42' W 013°05'1 8.7
2018-Jan-11 23:58N 28°43' W 013°06'4 9.0
2018-Jan-11 23:30N 28°47' W 013°06'5 7.8
2018-Jan-11 22:48N 28°52' W 013°08'3 8.0
2018-Jan-11 22:29N 28°52' W 013°11'4 8.1
2018-Jan-11 22:00N 28°53' W 013°16'4 8.2
2018-Jan-11 21:30N 28°54' W 013°20'4 8.5
2018-Jan-11 20:59N 28°55' W 013°25'4 8.8
2018-Jan-11 20:29N 28°57' W 013°30'2 4.2
2018-Jan-11 19:58N 28°58' W 013°32'0 0.1
2018-Jan-11 19:28N 28°58' W 013°32'0 0.0
2018-Jan-11 18:58N 28°58' W 013°32'0 0.0
2018-Jan-11 18:28N 28°58' W 013°32'0 0.0
2018-Jan-11 17:52N 28°58' W 013°32'0 0.0
2018-Jan-11 17:22N 28°58' W 013°32'0 0.0
2018-Jan-11 16:40N 28°58' W 013°32'0 0.0
2018-Jan-11 16:28N 28°58' W 013°32'0 0.0
2018-Jan-11 15:58N 28°58' W 013°32'0 0.0
2018-Jan-11 15:28N 28°58' W 013°32'0 0.0
2018-Jan-11 14:58N 28°58' W 013°32'0 0.0
2018-Jan-11 14:28N 28°58' W 013°32'0 0.0
2018-Jan-11 13:58N 28°58' W 013°32'0 0.0
2018-Jan-11 13:22N 28°58' W 013°32'0 0.0
2018-Jan-11 13:00N 28°58' W 013°32'0 0.0
2018-Jan-11 12:30N 28°58' W 013°32'1 2.1
2018-Jan-11 11:59N 28°57' W 013°31'613.3
2018-Jan-11 11:30N 28°58' W 013°23'714.1
2018-Jan-11 11:01N 28°60' W 013°16'714.2
2018-Jan-11 10:30N 29°02' W 013°08'  

Dump ship's entire track history